National Geographic Sea Bird — WAK8004 — position and weather

sailwx.info

Track history (hours):
 
Tides and Currents Weather Stations Pressure Air Temp Water Temp Dewpoint Dewpoint Depression Visibility Wind Speed Wind Dir Waves Ship Positions

National Geographic Sea Bird

Owner: Lindblad Expeditions LLC, SEATTLE, WA. More information available from US FCC via Universal Licensing System and Coast Guard Vessel Documentation Center.

Last reported at 2019-Jul-13 06:57 UTC. Time now 2019-Jul-16 10:07 UTC.
Position N 58°17' W 135°39'.

Length 50 m; draft 2.7 m.

Type: Passenger vessel. MMSI: 366892350.

Date/timePositionNaut miles runAvg speedWind from/ knotsBaromVisibWave heightAir tempDewpointWater temp
2019-Jul-13 06:57N 58°17' W 135°39'3 7.3
2019-Jul-13 06:29N 58°18' W 135°45'2 3.7
2019-Jul-13 06:00N 58°17' W 135°49'4 7.4
2019-Jul-13 05:30N 58°17' W 135°56'611.1
2019-Jul-13 05:00N 58°15' W 136°05'5 6.5
2019-Jul-13 04:18N 58°13' W 136°13'2 6.2
2019-Jul-13 04:01N 58°14' W 136°14'4 0.8
2019-Jul-12 22:32N 58°17' W 136°21'310.2
2019-Jul-12 22:16N 58°16' W 136°16'3 7.8
2019-Jul-12 21:52N 58°13' W 136°16'1 1.4
2019-Jul-12 21:27N 58°12' W 136°16'0 0.0
2019-Jul-12 20:58N 58°12' W 136°16'0 0.0
2019-Jul-12 20:30N 58°12' W 136°16'0 0.0
2019-Jul-12 20:00N 58°12' W 136°16'0 0.0
2019-Jul-12 19:30N 58°12' W 136°16'0 0.0
2019-Jul-12 18:59N 58°12' W 136°16'0 0.0
2019-Jul-12 18:30N 58°12' W 136°16'0 0.0
2019-Jul-12 17:30N 58°12' W 136°16'0 0.0
2019-Jul-12 16:53N 58°12' W 136°16'0 0.0
2019-Jul-12 16:09N 58°12' W 136°16'0 0.0
2019-Jul-12 15:59N 58°12' W 136°16'0 0.0
2019-Jul-12 15:28N 58°12' W 136°16'5 6.6
2019-Jul-12 14:38N 58°14' W 136°06'1 9.4
2019-Jul-12 14:30N 58°15' W 136°04'5 9.8
2019-Jul-12 14:00N 58°16' W 135°55'4 8.9
2019-Jul-12 13:30N 58°18' W 135°47'510.0
2019-Jul-12 12:59N 58°16' W 135°38'6 9.8
2019-Jul-12 12:23N 58°14' W 135°27'  
2019-Jul-07 04:46N 58°14' W 135°26'3 9.6
2019-Jul-07 04:30N 58°15' W 135°30'5 9.7
2019-Jul-07 03:59N 58°17' W 135°40'4 8.9
2019-Jul-07 03:30N 58°18' W 135°47'4 8.1
2019-Jul-07 03:00N 58°16' W 135°54'5 4.1
2019-Jul-07 01:52N 58°12' W 135°59'0 0.0
2019-Jul-07 01:25N 58°12' W 135°59'0 0.0
2019-Jul-07 00:55N 58°12' W 135°59'0 0.0
2019-Jul-07 00:28N 58°12' W 135°59'0 0.0
2019-Jul-06 23:55N 58°12' W 135°59'0 0.0
2019-Jul-06 23:28N 58°12' W 135°59'0 0.0
2019-Jul-06 22:58N 58°12' W 135°59'0 0.0
2019-Jul-06 22:25N 58°12' W 135°59'0 0.1
2019-Jul-06 21:58N 58°12' W 135°59'5 8.7
2019-Jul-06 21:25N 58°14' W 136°07'511.7
2019-Jul-06 21:00N 58°14' W 136°17'2 1.2
2019-Jul-06 19:25N 58°14' W 136°20'0 0.0
2019-Jul-06 16:10N 58°14' W 136°20'0 0.2
2019-Jul-06 15:33N 58°14' W 136°20'0 5.0
2019-Jul-06 15:29N 58°14' W 136°19'3 6.8
2019-Jul-06 15:00N 58°13' W 136°14'1 1.1
2019-Jul-06 14:02N 58°13' W 136°12'0 7.8
2019-Jul-06 13:58N 58°14' W 136°12'3 6.0
2019-Jul-06 13:30N 58°16' W 136°11'4 6.0
2019-Jul-06 12:53N 58°15' W 136°04'3 7.0
2019-Jul-06 12:30N 58°15' W 135°60'4 7.3
2019-Jul-06 12:00N 58°17' W 135°53'3 6.9
2019-Jul-06 11:30N 58°18' W 135°47'3 6.0
2019-Jul-06 11:00N 58°16' W 135°42'4 7.6
2019-Jul-06 10:29N 58°15' W 135°35'4 7.5
2019-Jul-06 09:58N 58°13' W 135°29'  
Track history (hours):
 
Tides and Currents Weather Stations Pressure Air Temp Water Temp Dewpoint Dewpoint Depression Visibility Wind Speed Wind Dir Waves Ship Positions

National Geographic Sea Bird

Owner: Lindblad Expeditions LLC, SEATTLE, WA. More information available from US FCC via Universal Licensing System and Coast Guard Vessel Documentation Center.

Last reported at 2019-Jul-13 06:57 UTC. Time now 2019-Jul-16 10:07 UTC.
Position N 58°17' W 135°39'.

Length 50 m; draft 2.7 m.

Type: Passenger vessel. MMSI: 366892350.

Date/timePositionNaut miles runAvg speedWind from/ knotsBaromVisibWave heightAir tempDewpointWater temp
2019-Jul-13 06:57N 58°17' W 135°39'3 7.3
2019-Jul-13 06:29N 58°18' W 135°45'2 3.7
2019-Jul-13 06:00N 58°17' W 135°49'4 7.4
2019-Jul-13 05:30N 58°17' W 135°56'611.1
2019-Jul-13 05:00N 58°15' W 136°05'5 6.5
2019-Jul-13 04:18N 58°13' W 136°13'2 6.2
2019-Jul-13 04:01N 58°14' W 136°14'4 0.8
2019-Jul-12 22:32N 58°17' W 136°21'310.2
2019-Jul-12 22:16N 58°16' W 136°16'3 7.8
2019-Jul-12 21:52N 58°13' W 136°16'1 1.4
2019-Jul-12 21:27N 58°12' W 136°16'0 0.0
2019-Jul-12 20:58N 58°12' W 136°16'0 0.0
2019-Jul-12 20:30N 58°12' W 136°16'0 0.0
2019-Jul-12 20:00N 58°12' W 136°16'0 0.0
2019-Jul-12 19:30N 58°12' W 136°16'0 0.0
2019-Jul-12 18:59N 58°12' W 136°16'0 0.0
2019-Jul-12 18:30N 58°12' W 136°16'0 0.0
2019-Jul-12 17:30N 58°12' W 136°16'0 0.0
2019-Jul-12 16:53N 58°12' W 136°16'0 0.0
2019-Jul-12 16:09N 58°12' W 136°16'0 0.0
2019-Jul-12 15:59N 58°12' W 136°16'0 0.0
2019-Jul-12 15:28N 58°12' W 136°16'5 6.6
2019-Jul-12 14:38N 58°14' W 136°06'1 9.4
2019-Jul-12 14:30N 58°15' W 136°04'5 9.8
2019-Jul-12 14:00N 58°16' W 135°55'4 8.9
2019-Jul-12 13:30N 58°18' W 135°47'510.0
2019-Jul-12 12:59N 58°16' W 135°38'6 9.8
2019-Jul-12 12:23N 58°14' W 135°27'  
2019-Jul-07 04:46N 58°14' W 135°26'3 9.6
2019-Jul-07 04:30N 58°15' W 135°30'5 9.7
2019-Jul-07 03:59N 58°17' W 135°40'4 8.9
2019-Jul-07 03:30N 58°18' W 135°47'4 8.1
2019-Jul-07 03:00N 58°16' W 135°54'5 4.1
2019-Jul-07 01:52N 58°12' W 135°59'0 0.0
2019-Jul-07 01:25N 58°12' W 135°59'0 0.0
2019-Jul-07 00:55N 58°12' W 135°59'0 0.0
2019-Jul-07 00:28N 58°12' W 135°59'0 0.0
2019-Jul-06 23:55N 58°12' W 135°59'0 0.0
2019-Jul-06 23:28N 58°12' W 135°59'0 0.0
2019-Jul-06 22:58N 58°12' W 135°59'0 0.0
2019-Jul-06 22:25N 58°12' W 135°59'0 0.1
2019-Jul-06 21:58N 58°12' W 135°59'5 8.7
2019-Jul-06 21:25N 58°14' W 136°07'511.7
2019-Jul-06 21:00N 58°14' W 136°17'2 1.2
2019-Jul-06 19:25N 58°14' W 136°20'0 0.0
2019-Jul-06 16:10N 58°14' W 136°20'0 0.2
2019-Jul-06 15:33N 58°14' W 136°20'0 5.0
2019-Jul-06 15:29N 58°14' W 136°19'3 6.8
2019-Jul-06 15:00N 58°13' W 136°14'1 1.1
2019-Jul-06 14:02N 58°13' W 136°12'0 7.8
2019-Jul-06 13:58N 58°14' W 136°12'3 6.0
2019-Jul-06 13:30N 58°16' W 136°11'4 6.0
2019-Jul-06 12:53N 58°15' W 136°04'3 7.0
2019-Jul-06 12:30N 58°15' W 135°60'4 7.3
2019-Jul-06 12:00N 58°17' W 135°53'3 6.9
2019-Jul-06 11:30N 58°18' W 135°47'3 6.0
2019-Jul-06 11:00N 58°16' W 135°42'4 7.6
2019-Jul-06 10:29N 58°15' W 135°35'4 7.5
2019-Jul-06 09:58N 58°13' W 135°29'  

Dump ship's entire track history